Time;durP1;ratioP1;P1;durP2;ratioP2;P2;SDS_P1;SDS_P2;PMS_P1;PMS_P2;Temp;Humidity;BMP_temperature;BMP_pressure;BME280_temperature;BME280_humidity;BME280_pressure;Samples;Min_cycle;Max_cycle;Signal;HPM_P1;HPM_P2
2023/04/10 00:01:09;;;;;;;;;;;;;;;7.75;100.00;102086.03;4948677;28;20330;-75
2023/04/10 00:03:34;;;;;;;;;;;;;;;7.89;100.00;102089.88;4952224;28;20381;-75
2023/04/10 00:06:00;;;;;;;;;;;;;;;7.85;100.00;102088.25;4947553;28;20300;-75
2023/04/10 00:08:25;;;;;;;;;;;;;;;7.90;100.00;102089.81;4950061;28;19961;-75
2023/04/10 00:10:50;;;;;;;;;;;;;;;7.85;100.00;102085.59;4954607;28;20674;-75
2023/04/10 00:13:15;;;;;;;;;;;;;;;7.90;100.00;102086.25;4957447;28;20385;-76
2023/04/10 00:15:41;;;;;;;;;;;;;;;8.17;100.00;102077.84;4955936;28;19926;-75
2023/04/10 00:18:06;;;;;;;;;;;;;;;8.19;100.00;102068.84;4957002;28;19930;-75
2023/04/10 00:20:31;;;;;;;;;;;;;;;8.11;100.00;102069.19;4955940;28;19926;-75
2023/04/10 00:22:56;;;;;;;;;;;;;;;8.08;100.00;102061.31;4952608;28;19964;-75
2023/04/10 00:25:22;;;;;;;;;;;;;;;7.90;100.00;102057.72;4949309;28;19936;-75
2023/04/10 00:27:47;;;;;;;;;;;;;;;7.93;100.00;102048.66;4950918;28;19929;-75
2023/04/10 00:30:12;;;;;;;;;;;;;;;7.77;100.00;102041.38;4946369;28;19922;-75
2023/04/10 00:32:38;;;;;;;;;;;;;;;7.84;100.00;102033.94;4950596;28;19922;-75
2023/04/10 00:35:03;;;;;;;;;;;;;;;7.90;100.00;102038.13;4949768;28;19926;-75
2023/04/10 00:37:28;;;;;;;;;;;;;;;7.65;100.00;102028.56;4949780;28;19926;-75
2023/04/10 00:39:53;;;;;;;;;;;;;;;7.69;100.00;102026.63;4949500;28;20324;-75
2023/04/10 00:42:18;;;;;;;;;;;;;;;7.59;100.00;102027.06;4951406;28;19992;-76
2023/04/10 00:44:44;;;;;;;;;;;;;;;7.61;100.00;102019.84;4950823;28;20199;-75
2023/04/10 00:47:09;;;;;;;;;;;;;;;7.52;100.00;102022.06;4951167;28;20507;-75
2023/04/10 00:49:34;;;;;;;;;;;;;;;7.57;100.00;102012.91;4953424;28;20440;-75
2023/04/10 00:52:00;;;;;;;;;;;;;;;7.62;100.00;102012.69;4951438;28;20067;-75
2023/04/10 00:54:25;;;;;;;;;;;;;;;7.73;100.00;102013.06;4949407;28;19922;-75
2023/04/10 00:56:50;;;;;;;;;;;;;;;7.64;100.00;102009.00;4950073;28;20571;-75
2023/04/10 00:59:15;;;;;;;;;;;;;;;7.59;100.00;102012.81;4949458;28;19926;-75
2023/04/10 01:01:41;;;;;;;;;;;;;;;7.60;100.00;102006.53;4932974;28;19972;-75
2023/04/10 01:04:06;;;;;;;;;;;;;;;7.56;100.00;102005.81;4950441;28;20120;-75
2023/04/10 01:06:50;;;;;;;;;;;;;;;7.49;100.00;102007.03;4950506;28;19962;-75
2023/04/10 01:09:38;;;;;;;;;;;;;;;7.37;100.00;102005.78;4949861;28;19922;-75
2023/04/10 01:12:06;;;;;;;;;;;;;;;7.32;100.00;102005.13;4966957;28;20058;-75
2023/04/10 01:14:36;;;;;;;;;;;;;;;7.47;100.00;102001.78;4952199;28;20397;-75
2023/04/10 01:17:06;;;;;;;;;;;;;;;7.41;100.00;102002.03;4929481;28;20009;-75
2023/04/10 01:19:37;;;;;;;;;;;;;;;7.38;100.00;101996.00;4949634;28;19929;-75
2023/04/10 01:22:02;;;;;;;;;;;;;;;7.40;100.00;102002.13;4953564;28;19929;-75
2023/04/10 01:24:37;;;;;;;;;;;;;;;7.33;100.00;101997.06;4937390;28;19928;-75
2023/04/10 01:27:07;;;;;;;;;;;;;;;7.33;100.00;101994.38;4946976;28;19926;-75
2023/04/10 01:29:32;;;;;;;;;;;;;;;7.27;100.00;101994.66;4948447;28;19926;-75
2023/04/10 01:32:00;;;;;;;;;;;;;;;7.25;100.00;101993.00;4946351;28;19932;-75
2023/04/10 01:34:27;;;;;;;;;;;;;;;7.30;100.00;101994.53;4949699;28;21127;-75
2023/04/10 01:36:52;;;;;;;;;;;;;;;7.24;100.00;101988.59;4952885;28;19930;-75
2023/04/10 01:39:18;;;;;;;;;;;;;;;7.15;100.00;102000.56;4953766;28;19921;-75
2023/04/10 01:41:43;;;;;;;;;;;;;;;7.27;100.00;102005.34;4963269;28;20085;-75
2023/04/10 01:44:10;;;;;;;;;;;;;;;7.31;100.00;101990.03;4946958;28;19934;-75
2023/04/10 01:46:35;;;;;;;;;;;;;;;7.28;100.00;101987.53;4940403;28;20053;-75
2023/04/10 01:49:01;;;;;;;;;;;;;;;7.21;100.00;101986.91;4951532;28;19922;-75
2023/04/10 01:51:26;;;;;;;;;;;;;;;7.26;100.00;101986.72;4949679;28;19925;-75
2023/04/10 01:53:51;;;;;;;;;;;;;;;7.10;100.00;101983.88;4953773;28;19930;-75
2023/04/10 01:56:17;;;;;;;;;;;;;;;7.10;100.00;101974.06;4949525;28;20385;-75
2023/04/10 01:58:42;;;;;;;;;;;;;;;7.14;100.00;101978.31;4963706;28;20369;-75
2023/04/10 02:01:08;;;;;;;;;;;;;;;6.96;100.00;101971.16;4949168;28;19928;-75
2023/04/10 02:03:34;;;;;;;;;;;;;;;7.00;100.00;101970.06;4946093;28;19984;-75
2023/04/10 02:06:30;;;;;;;;;;;;;;;6.93;100.00;101966.78;4947595;28;20382;-75
2023/04/10 02:09:06;;;;;;;;;;;;;;;6.90;100.00;101970.47;4948009;28;19966;-75
2023/04/10 02:11:41;;;;;;;;;;;;;;;6.80;100.00;101966.47;4967932;28;19945;-75
2023/04/10 02:14:07;;;;;;;;;;;;;;;6.80;100.00;101957.59;4930807;28;20228;-75
2023/04/10 02:16:32;;;;;;;;;;;;;;;6.81;100.00;101959.34;4931311;28;20360;-75
2023/04/10 02:18:58;;;;;;;;;;;;;;;6.86;100.00;101960.88;4945906;28;20039;-75
2023/04/10 02:21:23;;;;;;;;;;;;;;;6.85;100.00;101961.78;4934840;28;19922;-75
2023/04/10 02:23:48;;;;;;;;;;;;;;;6.83;100.00;101961.00;4965248;28;19929;-75
2023/04/10 02:26:14;;;;;;;;;;;;;;;6.78;100.00;101954.97;4951924;28;20237;-75
2023/04/10 02:28:39;;;;;;;;;;;;;;;6.76;100.00;101956.84;4973778;28;19923;-75
2023/04/10 02:31:05;;;;;;;;;;;;;;;6.77;100.00;101955.91;4938039;28;20414;-75
2023/04/10 02:33:30;;;;;;;;;;;;;;;6.79;100.00;101953.19;4946516;28;20285;-75
2023/04/10 02:35:55;;;;;;;;;;;;;;;6.79;100.00;101947.84;4948250;28;19923;-75
2023/04/10 02:38:21;;;;;;;;;;;;;;;6.74;100.00;101950.75;4931538;28;19933;-75
2023/04/10 02:40:46;;;;;;;;;;;;;;;6.72;100.00;101953.47;4952383;28;19922;-75
2023/04/10 02:43:11;;;;;;;;;;;;;;;6.68;100.00;101949.19;4962439;28;19933;-75
2023/04/10 02:45:36;;;;;;;;;;;;;;;6.71;100.00;101949.06;4951770;28;19989;-75
2023/04/10 02:48:03;;;;;;;;;;;;;;;6.65;100.00;101949.31;4949323;28;20004;-74
2023/04/10 02:50:31;;;;;;;;;;;;;;;6.64;100.00;101952.06;4947274;28;20006;-75
2023/04/10 02:52:56;;;;;;;;;;;;;;;6.68;100.00;101941.19;4945931;28;19922;-75
2023/04/10 02:55:21;;;;;;;;;;;;;;;6.64;100.00;101941.38;4947243;28;19926;-75
2023/04/10 02:57:46;;;;;;;;;;;;;;;6.71;100.00;101935.72;4932628;28;20064;-75
2023/04/10 03:00:12;;;;;;;;;;;;;;;6.66;100.00;101936.84;4933808;28;20013;-75
2023/04/10 03:02:37;;;;;;;;;;;;;;;6.69;100.00;101940.25;4945254;28;19988;-75
2023/04/10 03:05:02;;;;;;;;;;;;;;;6.68;100.00;101937.66;4930808;28;19980;-75
2023/04/10 03:07:27;;;;;;;;;;;;;;;6.54;100.00;101939.09;4944145;28;20044;-74
2023/04/10 03:09:53;;;;;;;;;;;;;;;6.59;100.00;101937.13;4947289;28;19925;-75
2023/04/10 03:12:19;;;;;;;;;;;;;;;6.56;100.00;101937.25;4928568;28;19945;-75
2023/04/10 03:14:44;;;;;;;;;;;;;;;6.56;100.00;101939.91;4930316;28;19933;-75
2023/04/10 03:17:11;;;;;;;;;;;;;;;6.57;100.00;101943.47;4929545;28;20353;-75
2023/04/10 03:19:36;;;;;;;;;;;;;;;6.44;100.00;101943.13;4931132;28;19922;-75
2023/04/10 03:22:02;;;;;;;;;;;;;;;6.53;100.00;101949.88;4932003;28;19988;-75
2023/04/10 03:24:27;;;;;;;;;;;;;;;6.48;100.00;101946.53;4943409;28;20768;-75
2023/04/10 03:26:53;;;;;;;;;;;;;;;6.35;100.00;101925.72;4945197;28;19918;-75
2023/04/10 03:29:18;;;;;;;;;;;;;;;6.44;100.00;101945.78;4929781;28;19944;-75
2023/04/10 03:31:43;;;;;;;;;;;;;;;6.46;100.00;101943.94;4950509;28;20139;-75
2023/04/10 03:34:08;;;;;;;;;;;;;;;6.50;100.00;101937.50;4943803;28;19929;-75
2023/04/10 03:36:34;;;;;;;;;;;;;;;6.46;100.00;101938.59;4947310;28;19929;-75
2023/04/10 03:38:59;;;;;;;;;;;;;;;6.42;100.00;101937.00;4934519;28;20021;-75
2023/04/10 03:41:24;;;;;;;;;;;;;;;6.40;100.00;101939.69;4949907;28;20016;-75
2023/04/10 03:43:49;;;;;;;;;;;;;;;6.37;100.00;101933.63;4934070;28;19928;-75
2023/04/10 03:46:15;;;;;;;;;;;;;;;6.35;100.00;101928.38;4948632;28;19921;-75
2023/04/10 03:48:40;;;;;;;;;;;;;;;6.30;100.00;101922.38;4963490;28;20029;-75
2023/04/10 03:51:05;;;;;;;;;;;;;;;6.29;100.00;101915.31;4949678;28;19997;-75
2023/04/10 03:53:34;;;;;;;;;;;;;;;6.36;100.00;101915.91;4950631;28;20008;-76
2023/04/10 03:56:00;;;;;;;;;;;;;;;6.32;100.00;101914.28;4957114;28;20024;-75
2023/04/10 03:58:25;;;;;;;;;;;;;;;6.22;100.00;101917.38;4958767;28;19976;-75
2023/04/10 04:00:50;;;;;;;;;;;;;;;6.28;100.00;101916.22;4955282;28;20376;-76
2023/04/10 04:03:16;;;;;;;;;;;;;;;6.21;100.00;101907.63;4957823;28;20013;-75
2023/04/10 04:05:41;;;;;;;;;;;;;;;6.09;100.00;101908.13;4952589;28;20281;-76
2023/04/10 04:08:06;;;;;;;;;;;;;;;5.91;100.00;101901.72;4955093;28;20288;-75
2023/04/10 04:10:32;;;;;;;;;;;;;;;5.83;100.00;101907.38;4956840;28;20349;-75
2023/04/10 04:12:57;;;;;;;;;;;;;;;5.82;100.00;101908.31;4940775;28;19926;-76
2023/04/10 04:15:22;;;;;;;;;;;;;;;5.84;100.00;101904.63;4941168;28;19937;-76
2023/04/10 04:17:47;;;;;;;;;;;;;;;5.93;100.00;101900.75;4954720;28;20048;-76
2023/04/10 04:20:13;;;;;;;;;;;;;;;5.97;100.00;101904.16;4956163;28;20428;-76
2023/04/10 04:22:38;;;;;;;;;;;;;;;6.00;100.00;101899.56;4957132;28;20052;-76
2023/04/10 04:25:07;;;;;;;;;;;;;;;6.03;100.00;101892.38;4939630;28;19949;-75
2023/04/10 04:27:32;;;;;;;;;;;;;;;5.94;100.00;101898.94;4939836;28;19934;-76
2023/04/10 04:29:58;;;;;;;;;;;;;;;5.90;100.00;101894.66;4971329;28;19922;-76
2023/04/10 04:32:23;;;;;;;;;;;;;;;5.85;100.00;101890.38;4958504;28;20373;-75
2023/04/10 04:34:48;;;;;;;;;;;;;;;5.93;100.00;101884.75;4957456;28;20389;-75
2023/04/10 04:37:13;;;;;;;;;;;;;;;6.00;100.00;101882.72;4956623;28;20317;-76
2023/04/10 04:39:39;;;;;;;;;;;;;;;6.00;100.00;101883.59;4956889;28;20390;-76
2023/04/10 04:42:06;;;;;;;;;;;;;;;6.00;100.00;101886.25;4939006;28;19965;-75
2023/04/10 04:44:31;;;;;;;;;;;;;;;6.02;100.00;101882.66;4955104;28;19926;-75
2023/04/10 04:46:56;;;;;;;;;;;;;;;5.98;100.00;101895.22;4975077;28;19933;-75
2023/04/10 04:49:22;;;;;;;;;;;;;;;5.92;100.00;101901.69;4940300;28;19926;-75
2023/04/10 04:51:47;;;;;;;;;;;;;;;5.97;100.00;101891.66;4944504;28;20424;-76
2023/04/10 04:54:12;;;;;;;;;;;;;;;5.93;100.00;101891.88;4968147;28;20456;-75
2023/04/10 04:56:37;;;;;;;;;;;;;;;5.82;100.00;101892.31;4951280;28;20453;-76
2023/04/10 04:59:02;;;;;;;;;;;;;;;5.79;100.00;101884.44;4951387;28;19952;-76
2023/04/10 05:01:28;;;;;;;;;;;;;;;5.90;100.00;101873.34;4949870;28;19969;-76
2023/04/10 05:03:53;;;;;;;;;;;;;;;5.86;100.00;101880.59;4951887;28;20451;-76
2023/04/10 05:06:19;;;;;;;;;;;;;;;5.95;100.00;101874.03;4950376;28;20258;-76
2023/04/10 05:08:44;;;;;;;;;;;;;;;5.94;100.00;101870.50;4930316;28;20422;-75
2023/04/10 05:11:10;;;;;;;;;;;;;;;5.92;100.00;101867.03;4951996;28;20629;-76
2023/04/10 05:13:35;;;;;;;;;;;;;;;5.95;100.00;101860.69;4966807;28;21283;-73
2023/04/10 05:16:00;;;;;;;;;;;;;;;6.03;100.00;101857.72;4950262;28;19925;-76
2023/04/10 05:18:25;;;;;;;;;;;;;;;6.08;100.00;101855.75;4932671;28;19933;-76
2023/04/10 05:20:51;;;;;;;;;;;;;;;6.02;100.00;101858.66;4952015;28;20277;-76
2023/04/10 05:23:16;;;;;;;;;;;;;;;6.05;100.00;101855.88;4934411;28;20234;-76
2023/04/10 05:25:41;;;;;;;;;;;;;;;6.04;100.00;101855.00;4951228;28;19968;-76
2023/04/10 05:28:07;;;;;;;;;;;;;;;5.85;100.00;101828.22;4935047;28;20262;-76
2023/04/10 05:30:32;;;;;;;;;;;;;;;6.11;100.00;101850.28;4949159;28;20333;-76
2023/04/10 05:32:57;;;;;;;;;;;;;;;6.12;100.00;101850.19;4933066;28;19976;-76
2023/04/10 05:35:22;;;;;;;;;;;;;;;6.17;100.00;101857.13;4933644;28;19926;-76
2023/04/10 05:37:48;;;;;;;;;;;;;;;6.12;100.00;101852.00;4950586;28;19930;-75
2023/04/10 05:40:13;;;;;;;;;;;;;;;6.31;100.00;101846.75;4952547;28;19930;-75
2023/04/10 05:42:38;;;;;;;;;;;;;;;6.33;100.00;101847.56;4952257;28;19921;-75
2023/04/10 05:45:04;;;;;;;;;;;;;;;6.47;100.00;101849.63;4932525;28;19957;-75
2023/04/10 05:47:29;;;;;;;;;;;;;;;6.44;100.00;101844.41;4953875;28;20360;-75
2023/04/10 05:49:54;;;;;;;;;;;;;;;6.38;100.00;101848.19;4953918;28;20420;-75
2023/04/10 05:52:20;;;;;;;;;;;;;;;6.54;100.00;101855.53;4945209;28;19922;-75
2023/04/10 05:54:45;;;;;;;;;;;;;;;6.59;100.00;101854.38;4926514;28;20044;-75
2023/04/10 05:57:11;;;;;;;;;;;;;;;6.66;100.00;101854.97;4935989;28;19930;-75
2023/04/10 05:59:36;;;;;;;;;;;;;;;6.85;100.00;101843.47;4929678;28;20369;-75
2023/04/10 06:02:01;;;;;;;;;;;;;;;6.85;100.00;101848.81;4948276;28;19922;-75
2023/04/10 06:04:26;;;;;;;;;;;;;;;6.78;100.00;101852.69;4948233;28;19922;-75
2023/04/10 06:06:51;;;;;;;;;;;;;;;7.00;100.00;101842.75;4945444;28;19990;-75
2023/04/10 06:09:17;;;;;;;;;;;;;;;6.92;100.00;101846.72;4948525;28;19926;-75
2023/04/10 06:11:42;;;;;;;;;;;;;;;7.10;100.00;101847.69;4927435;28;20404;-75
2023/04/10 06:14:07;;;;;;;;;;;;;;;7.15;100.00;101849.19;4965240;28;20286;-75
2023/04/10 06:16:32;;;;;;;;;;;;;;;7.18;100.00;101843.69;4940777;28;20615;-75
2023/04/10 06:18:57;;;;;;;;;;;;;;;7.23;100.00;101851.47;4944222;28;20068;-75
2023/04/10 06:21:23;;;;;;;;;;;;;;;7.38;100.00;101849.88;4965150;28;20315;-75
2023/04/10 06:23:48;;;;;;;;;;;;;;;7.45;100.00;101843.31;4949869;28;20025;-75
2023/04/10 06:26:13;;;;;;;;;;;;;;;7.58;100.00;101837.34;4962770;28;20528;-75
2023/04/10 06:28:38;;;;;;;;;;;;;;;7.69;100.00;101837.69;4932462;28;19922;-75
2023/04/10 06:31:07;;;;;;;;;;;;;;;7.69;100.00;101829.69;4946128;28;19922;-75
2023/04/10 06:33:34;;;;;;;;;;;;;;;7.89;100.00;101827.81;4948568;28;20319;-75
2023/04/10 06:36:00;;;;;;;;;;;;;;;7.80;100.00;101834.50;4948313;28;19958;-75
2023/04/10 06:38:25;;;;;;;;;;;;;;;7.81;100.00;101829.06;4948627;28;20112;-75
2023/04/10 06:40:52;;;;;;;;;;;;;;;8.00;100.00;101828.13;4960857;28;21286;-75
2023/04/10 06:43:17;;;;;;;;;;;;;;;8.02;100.00;101820.03;4950909;28;19922;-74
2023/04/10 06:45:42;;;;;;;;;;;;;;;7.99;100.00;101821.06;4961874;28;20025;-75
2023/04/10 06:48:07;;;;;;;;;;;;;;;8.21;100.00;101820.78;4944419;28;20185;-75
2023/04/10 06:50:33;;;;;;;;;;;;;;;8.17;100.00;101807.66;4945446;28;20347;-75
2023/04/10 06:52:58;;;;;;;;;;;;;;;8.43;100.00;101806.31;4946253;28;19926;-75
2023/04/10 06:55:27;;;;;;;;;;;;;;;8.40;100.00;101799.28;4950286;28;19922;-75
2023/04/10 06:57:53;;;;;;;;;;;;;;;8.49;100.00;101799.78;4946362;28;19930;-75
2023/04/10 07:00:19;;;;;;;;;;;;;;;8.57;100.00;101794.00;4943188;28;20212;-75
2023/04/10 07:02:45;;;;;;;;;;;;;;;8.59;100.00;101789.44;4947079;28;19922;-75
2023/04/10 07:05:10;;;;;;;;;;;;;;;8.81;100.00;101787.31;4949896;28;19938;-75
2023/04/10 07:07:35;;;;;;;;;;;;;;;8.90;100.00;101771.69;4949418;28;20305;-75
2023/04/10 07:10:00;;;;;;;;;;;;;;;8.96;100.00;101771.34;4951006;28;20333;-75
2023/04/10 07:12:26;;;;;;;;;;;;;;;9.17;100.00;101761.22;4945357;28;20487;-76
2023/04/10 07:14:51;;;;;;;;;;;;;;;9.16;100.00;101764.84;4948378;28;20340;-75
2023/04/10 07:17:16;;;;;;;;;;;;;;;9.24;99.20;101765.28;4947637;28;19949;-75
2023/04/10 07:19:41;;;;;;;;;;;;;;;9.18;100.00;101759.41;4951570;28;20024;-75
2023/04/10 07:22:06;;;;;;;;;;;;;;;9.20;95.21;101754.84;4946261;28;19956;-75
2023/04/10 07:24:32;;;;;;;;;;;;;;;9.40;98.59;101748.31;4945574;28;20148;-75
2023/04/10 07:26:57;;;;;;;;;;;;;;;9.38;93.32;101747.56;4948099;28;20013;-74
2023/04/10 07:29:22;;;;;;;;;;;;;;;9.45;91.03;101744.41;4944238;28;20406;-72
2023/04/10 07:31:48;;;;;;;;;;;;;;;9.58;91.02;101736.50;4943358;28;19929;-75
2023/04/10 07:34:13;;;;;;;;;;;;;;;9.64;96.00;101735.28;4949603;28;19938;-74
2023/04/10 07:36:38;;;;;;;;;;;;;;;9.81;90.66;101722.66;4963481;28;20372;-75
2023/04/10 07:39:03;;;;;;;;;;;;;;;9.74;88.73;101722.19;4945428;28;19926;-75
2023/04/10 07:41:29;;;;;;;;;;;;;;;9.81;86.62;101714.63;4945519;28;20819;-75
2023/04/10 07:43:54;;;;;;;;;;;;;;;10.14;90.90;101717.06;4945806;28;19928;-75
2023/04/10 07:46:19;;;;;;;;;;;;;;;10.15;84.98;101716.09;4927710;28;19922;-76
2023/04/10 07:48:46;;;;;;;;;;;;;;;10.26;91.65;101710.06;4940664;28;20308;-75
2023/04/10 07:51:11;;;;;;;;;;;;;;;10.13;87.48;101704.59;4943227;28;19922;-75
2023/04/10 07:53:36;;;;;;;;;;;;;;;10.32;88.72;101696.28;4941886;28;19928;-75
2023/04/10 07:56:02;;;;;;;;;;;;;;;10.39;88.31;101704.81;4941868;28;22280;-76
2023/04/10 07:58:27;;;;;;;;;;;;;;;10.59;86.38;101708.94;4954438;28;20006;-74
2023/04/10 08:00:52;;;;;;;;;;;;;;;10.64;85.39;101701.41;4944926;28;19956;-74
2023/04/10 08:03:17;;;;;;;;;;;;;;;11.00;82.82;101677.63;4956758;28;19961;-75
2023/04/10 08:05:43;;;;;;;;;;;;;;;11.12;80.67;101694.78;4940989;28;19957;-74
2023/04/10 08:08:08;;;;;;;;;;;;;;;11.12;78.05;101686.72;4946644;28;19929;-76
2023/04/10 08:10:35;;;;;;;;;;;;;;;11.44;88.15;101667.53;4961376;28;19964;-73
2023/04/10 08:13:00;;;;;;;;;;;;;;;11.59;80.31;101680.91;4948095;28;19998;-75
2023/04/10 08:15:25;;;;;;;;;;;;;;;11.77;80.10;101663.47;4947081;28;20012;-74
2023/04/10 08:17:50;;;;;;;;;;;;;;;11.81;76.80;101673.06;4938711;28;20028;-75
2023/04/10 08:20:16;;;;;;;;;;;;;;;11.58;79.09;101688.09;4940678;28;20114;-74
2023/04/10 08:22:41;;;;;;;;;;;;;;;11.68;74.84;101664.09;4948549;28;20453;-73
2023/04/10 08:25:06;;;;;;;;;;;;;;;11.57;80.83;101675.59;4946237;28;20432;-74
2023/04/10 08:27:32;;;;;;;;;;;;;;;11.66;77.73;101660.66;4931745;28;19922;-75
2023/04/10 08:29:58;;;;;;;;;;;;;;;11.74;74.12;101660.16;4927653;28;19949;-73
2023/04/10 08:32:25;;;;;;;;;;;;;;;11.81;78.02;101669.50;4954217;28;20007;-75
2023/04/10 08:34:50;;;;;;;;;;;;;;;11.72;76.04;101673.69;4949708;28;20085;-74
2023/04/10 08:37:15;;;;;;;;;;;;;;;11.82;74.47;101672.09;4949913;28;20709;-74
2023/04/10 08:39:41;;;;;;;;;;;;;;;11.80;76.13;101675.84;4952323;28;20401;-76
2023/04/10 08:42:06;;;;;;;;;;;;;;;11.54;73.85;101667.75;4949453;28;20403;-74
2023/04/10 08:44:31;;;;;;;;;;;;;;;11.81;75.60;101670.38;4946428;28;19926;-74
2023/04/10 08:47:00;;;;;;;;;;;;;;;11.87;76.94;101657.47;4944146;28;19922;-74
2023/04/10 08:49:44;;;;;;;;;;;;;;;11.99;76.10;101659.31;4945332;28;20341;-73
2023/04/10 08:52:15;;;;;;;;;;;;;;;12.10;72.23;101650.47;4951933;28;20330;-74
2023/04/10 08:54:40;;;;;;;;;;;;;;;12.30;73.03;101649.03;4964263;28;20281;-75
2023/04/10 08:57:06;;;;;;;;;;;;;;;12.56;76.98;101651.66;4965744;28;19927;-74
2023/04/10 08:59:31;;;;;;;;;;;;;;;12.55;72.84;101644.53;4948403;28;19929;-73
2023/04/10 09:01:56;;;;;;;;;;;;;;;12.53;72.33;101654.56;4948881;28;20380;-75
2023/04/10 09:04:23;;;;;;;;;;;;;;;12.38;74.65;101645.78;4943537;28;20392;-75
2023/04/10 09:06:48;;;;;;;;;;;;;;;12.47;71.17;101631.66;4933882;28;19929;-76
2023/04/10 09:09:13;;;;;;;;;;;;;;;12.23;72.98;101645.06;4949701;28;20384;-74
2023/04/10 09:11:50;;;;;;;;;;;;;;;12.34;75.61;101647.84;4967620;28;19922;-75
2023/04/10 09:14:22;;;;;;;;;;;;;;;12.59;70.99;101648.75;4955068;28;19922;-74
2023/04/10 09:16:47;;;;;;;;;;;;;;;12.72;75.49;101637.91;4934642;28;19921;-75
2023/04/10 09:19:12;;;;;;;;;;;;;;;12.82;73.54;101632.69;4950685;28;19926;-74
2023/04/10 09:21:38;;;;;;;;;;;;;;;12.86;72.16;101624.25;4966498;28;20301;-74
2023/04/10 09:24:03;;;;;;;;;;;;;;;12.91;79.22;101618.53;4954640;28;20243;-73
2023/04/10 09:26:32;;;;;;;;;;;;;;;12.81;72.12;101606.72;4967330;28;20436;-75
2023/04/10 09:29:01;;;;;;;;;;;;;;;12.70;73.59;101608.41;4936560;28;20278;-76
2023/04/10 09:31:28;;;;;;;;;;;;;;;12.72;74.90;101597.50;4949200;28;19945;-75
2023/04/10 09:34:06;;;;;;;;;;;;;;;12.79;75.01;101595.19;4935238;28;20020;-74
2023/04/10 09:36:31;;;;;;;;;;;;;;;12.84;71.32;101590.31;4968726;28;19930;-74
2023/04/10 09:38:57;;;;;;;;;;;;;;;12.84;70.39;101587.63;4947511;28;20220;-74
2023/04/10 09:41:22;;;;;;;;;;;;;;;12.80;73.08;101581.63;4935892;28;19962;-74
2023/04/10 09:43:47;;;;;;;;;;;;;;;12.73;73.71;101583.91;4951692;28;19926;-74
2023/04/10 09:46:13;;;;;;;;;;;;;;;12.86;71.43;101577.59;4950677;28;19926;-75
2023/04/10 09:48:40;;;;;;;;;;;;;;;12.77;73.14;101568.38;4950008;28;20052;-75
2023/04/10 09:51:05;;;;;;;;;;;;;;;12.82;71.99;101573.41;4952331;28;19926;-73
2023/04/10 09:53:30;;;;;;;;;;;;;;;12.73;71.43;101569.59;4962516;28;19957;-75
2023/04/10 09:55:55;;;;;;;;;;;;;;;12.86;73.55;101546.09;4949848;28;20272;-74
2023/04/10 09:58:21;;;;;;;;;;;;;;;12.96;74.44;101529.25;4948878;28;20341;-76
2023/04/10 10:00:47;;;;;;;;;;;;;;;12.91;72.77;101548.47;4943536;28;20425;-73
2023/04/10 10:03:13;;;;;;;;;;;;;;;12.99;72.64;101545.19;4953688;28;19923;-75
2023/04/10 10:05:39;;;;;;;;;;;;;;;13.37;75.21;101537.78;4947521;28;19933;-75
2023/04/10 10:08:04;;;;;;;;;;;;;;;13.37;74.33;101532.38;4949781;28;20399;-75
2023/04/10 10:10:30;;;;;;;;;;;;;;;13.25;72.29;101532.34;4946264;28;19933;-75
2023/04/10 10:12:56;;;;;;;;;;;;;;;13.29;71.14;101530.28;4948140;28;19925;-73
2023/04/10 10:15:22;;;;;;;;;;;;;;;13.30;74.07;101532.00;4930760;28;19953;-76
2023/04/10 10:17:55;;;;;;;;;;;;;;;13.47;72.74;101545.06;4944987;28;19926;-74
2023/04/10 10:20:21;;;;;;;;;;;;;;;13.47;72.58;101539.66;4949690;28;19934;-74
2023/04/10 10:22:46;;;;;;;;;;;;;;;13.74;74.46;101535.72;4947787;28;20096;-75
2023/04/10 10:25:11;;;;;;;;;;;;;;;13.82;75.46;101537.81;4949734;28;19925;-74
2023/04/10 10:27:37;;;;;;;;;;;;;;;13.88;73.76;101506.78;4968213;28;19945;-75
2023/04/10 10:30:02;;;;;;;;;;;;;;;13.89;73.99;101522.84;4948418;28;19991;-74
2023/04/10 10:32:28;;;;;;;;;;;;;;;14.03;71.32;101519.03;4947657;28;20281;-74
2023/04/10 10:34:53;;;;;;;;;;;;;;;14.07;70.51;101508.81;4934694;28;19926;-76
2023/04/10 10:40:05;;;;;;;;;;;;;;;14.03;70.37;101488.47;5557888;22;19932;-75
2023/04/10 10:42:34;;;;;;;;;;;;;;;14.36;71.76;101483.94;5003214;28;19921;-74
2023/04/10 10:45:02;;;;;;;;;;;;;;;14.29;69.93;101472.78;5010751;28;19932;-74
2023/04/10 10:47:28;;;;;;;;;;;;;;;14.52;72.87;101472.69;5006838;28;19925;-74
2023/04/10 10:49:53;;;;;;;;;;;;;;;14.85;73.52;101481.66;5005797;28;20366;-74
2023/04/10 10:52:37;;;;;;;;;;;;;;;14.52;70.36;101448.38;5006068;28;20457;-74
2023/04/10 10:55:21;;;;;;;;;;;;;;;14.65;68.94;101465.28;5009469;28;19921;-74
2023/04/10 10:57:47;;;;;;;;;;;;;;;14.80;70.77;101455.03;5004701;28;19937;-77
2023/04/10 11:00:12;;;;;;;;;;;;;;;14.57;70.48;101454.25;5007267;28;19936;-76
2023/04/10 11:02:37;;;;;;;;;;;;;;;14.48;68.22;101441.50;5007563;28;19925;-75
2023/04/10 11:05:03;;;;;;;;;;;;;;;14.59;68.42;101452.28;5010183;28;19921;-75
2023/04/10 11:07:48;;;;;;;;;;;;;;;14.65;69.23;101446.34;5009749;28;19936;-75
2023/04/10 11:10:13;;;;;;;;;;;;;;;14.64;68.35;101446.47;5011854;28;19952;-74
2023/04/10 11:12:58;;;;;;;;;;;;;;;15.05;67.24;101433.09;5003718;28;20024;-74
2023/04/10 11:15:23;;;;;;;;;;;;;;;15.12;67.97;101420.75;5004331;28;20352;-75
2023/04/10 11:17:49;;;;;;;;;;;;;;;15.33;61.88;101439.66;5010710;28;20447;-76
2023/04/10 11:20:15;;;;;;;;;;;;;;;15.30;62.63;101431.81;5004041;28;19927;-74
2023/04/10 11:23:00;;;;;;;;;;;;;;;15.35;64.98;101426.84;5005393;28;19921;-76
2023/04/10 11:25:44;;;;;;;;;;;;;;;15.58;61.63;101416.66;5007250;28;19927;-75
2023/04/10 11:28:09;;;;;;;;;;;;;;;15.83;66.07;101406.28;5007495;28;20338;-75
2023/04/10 11:30:35;;;;;;;;;;;;;;;15.55;64.33;101386.31;4990167;28;19925;-75
2023/04/10 11:33:00;;;;;;;;;;;;;;;15.71;62.96;101397.44;5006833;28;19921;-75
2023/04/10 11:35:27;;;;;;;;;;;;;;;15.69;61.21;101398.59;5008837;28;20429;-75
2023/04/10 11:38:06;;;;;;;;;;;;;;;15.53;60.30;101401.81;5009310;28;19925;-76
2023/04/10 11:40:32;;;;;;;;;;;;;;;15.70;62.57;101373.22;5005738;28;19993;-77
2023/04/10 11:43:11;;;;;;;;;;;;;;;15.55;61.11;101378.19;5008422;28;19935;-75
2023/04/10 11:45:36;;;;;;;;;;;;;;;16.05;60.86;101374.56;5004201;28;20020;-78
2023/04/10 11:48:01;;;;;;;;;;;;;;;16.13;61.30;101328.66;5005553;28;20236;-77
2023/04/10 11:50:28;;;;;;;;;;;;;;;16.25;60.38;101355.59;5009687;28;19921;-81
2023/04/10 11:52:53;;;;;;;;;;;;;;;15.96;59.45;101370.00;5004159;28;19943;-74
2023/04/10 11:55:18;;;;;;;;;;;;;;;15.71;61.84;101388.47;5007567;28;20380;-77
2023/04/10 11:57:44;;;;;;;;;;;;;;;15.77;60.72;101395.19;5007002;28;19968;-75
2023/04/10 12:00:10;;;;;;;;;;;;;;;15.85;60.27;101389.91;5008446;28;19921;-75
2023/04/10 12:02:48;;;;;;;;;;;;;;;15.77;60.47;101371.66;5008157;28;19932;-72
2023/04/10 12:05:13;;;;;;;;;;;;;;;15.81;60.21;101356.00;5013898;28;19921;-75
2023/04/10 12:07:39;;;;;;;;;;;;;;;15.79;60.40;101363.41;5012638;28;20058;-77
2023/04/10 12:10:05;;;;;;;;;;;;;;;15.82;60.81;101361.25;5011396;28;19995;-76
2023/04/10 12:12:33;;;;;;;;;;;;;;;15.58;66.36;101351.69;5010386;28;19925;-73
2023/04/10 12:14:59;;;;;;;;;;;;;;;15.66;60.80;101348.28;5009577;28;20012;-76
2023/04/10 12:17:24;;;;;;;;;;;;;;;15.51;63.87;101331.59;5003032;28;19925;-75
2023/04/10 12:19:49;;;;;;;;;;;;;;;15.87;62.14;101340.06;5009498;28;20379;-75
2023/04/10 12:22:14;;;;;;;;;;;;;;;15.84;60.37;101325.94;5012288;28;20463;-78
2023/04/10 12:24:40;;;;;;;;;;;;;;;15.98;62.07;101335.53;5011046;28;19921;-71
2023/04/10 12:27:05;;;;;;;;;;;;;;;16.04;60.31;101329.50;5005347;28;19947;-75
2023/04/10 12:29:30;;;;;;;;;;;;;;;16.14;63.16;101319.53;5021557;28;19941;-76
2023/04/10 12:31:56;;;;;;;;;;;;;;;16.24;58.86;101321.38;4989237;28;19921;-75
2023/04/10 12:34:21;;;;;;;;;;;;;;;15.89;63.02;101293.91;5019031;28;19925;-75
2023/04/10 12:36:50;;;;;;;;;;;;;;;15.98;60.06;101301.16;5012887;28;19979;-75